createdAt,value
2018-12-06T00:01:34.874Z,98371.78
2018-12-06T00:04:04.623Z,98375.27
2018-12-06T00:06:34.077Z,98376.93
2018-12-06T00:09:04.663Z,98372.36
2018-12-06T00:11:35.282Z,98364.05
2018-12-06T00:14:04.758Z,98364.89
2018-12-06T00:16:34.393Z,98357.63
2018-12-06T00:19:10.952Z,98366.78
2018-12-06T00:21:40.987Z,98358.19
2018-12-06T00:24:10.299Z,98340.77
2018-12-06T00:26:40.443Z,98340.23
2018-12-06T00:29:09.742Z,98341.09
2018-12-06T00:31:39.042Z,98354.73
2018-12-06T00:34:08.754Z,98346.14
2018-12-06T00:36:38.269Z,98352.09
2018-12-06T00:39:08.474Z,98351.05
2018-12-06T00:41:37.853Z,98351.36
2018-12-06T00:44:08.288Z,98331.81
2018-12-06T00:46:37.899Z,98321.09
2018-12-06T00:49:07.222Z,98313.34
2018-12-06T00:51:36.777Z,98317.05
2018-12-06T00:54:06.379Z,98314.93
2018-12-06T00:56:38.909Z,98302.31
2018-12-06T01:02:41.588Z,98287.55
2018-12-06T01:05:10.997Z,98281.91
2018-12-06T01:07:40.366Z,98267.96
2018-12-06T01:10:10.511Z,98249.72
2018-12-06T01:12:39.823Z,98249.70
2018-12-06T01:15:09.452Z,98241.66
2018-12-06T01:17:38.912Z,98237.89
2018-12-06T01:20:09.121Z,98240.33
2018-12-06T01:22:38.632Z,98234.68
2018-12-06T01:25:08.266Z,98217.25
2018-12-06T01:27:39.022Z,98206.80
2018-12-06T01:30:08.851Z,98209.49
2018-12-06T01:32:39.172Z,98216.98
2018-12-06T01:35:08.513Z,98200.88
2018-12-06T01:37:37.744Z,98204.66
2018-12-06T01:40:07.383Z,98212.95
2018-12-06T01:42:37.909Z,98206.52
2018-12-06T01:45:07.435Z,98214.02
2018-12-06T01:47:37.630Z,98208.92
2018-12-06T01:50:07.694Z,98210.50
2018-12-06T01:52:37.123Z,98211.33
2018-12-06T01:55:06.694Z,98211.77
2018-12-06T01:57:35.943Z,98220.35
2018-12-06T02:00:06.513Z,98226.52
2018-12-06T02:04:01.447Z,98238.34
2018-12-06T02:06:31.623Z,98232.16
2018-12-06T02:09:01.545Z,98231.09
2018-12-06T02:11:32.992Z,98226.55
2018-12-06T02:14:03.248Z,98228.72
2018-12-06T02:16:32.632Z,98229.23
2018-12-06T02:19:02.711Z,98233.25
2018-12-06T02:21:32.097Z,98238.63
2018-12-06T02:24:02.227Z,98233.54
2018-12-06T02:26:32.307Z,98237.31
2018-12-06T02:29:02.363Z,98238.91
2018-12-06T02:31:32.827Z,98247.74
2018-12-06T02:34:02.044Z,98252.03
2018-12-06T02:36:32.196Z,98257.38
2018-12-06T02:39:02.492Z,98274.84
2018-12-06T02:41:32.526Z,98277.23
2018-12-06T02:44:02.686Z,98272.44
2018-12-06T02:46:32.008Z,98258.52
2018-12-06T02:49:01.373Z,98246.78
2018-12-06T02:51:30.851Z,98232.05
2018-12-06T02:54:00.843Z,98232.03
2018-12-06T02:56:30.862Z,98233.39
2018-12-06T02:59:00.142Z,98237.70
2018-12-06T03:01:29.362Z,98248.42
2018-12-06T03:03:59.569Z,98254.59
2018-12-06T03:06:29.682Z,98270.70
2018-12-06T03:08:58.963Z,98273.66
2018-12-06T03:11:28.239Z,98277.15
2018-12-06T03:13:57.641Z,98275.27
2018-12-06T03:16:27.448Z,98280.39
2018-12-06T03:18:56.867Z,98279.03
2018-12-06T03:21:26.233Z,98268.88
2018-12-06T03:23:55.717Z,98262.16
2018-12-06T03:26:24.962Z,98275.31
2018-12-06T03:28:55.457Z,98271.83
2018-12-06T03:31:25.764Z,98267.29
2018-12-06T03:33:55.480Z,98257.88
2018-12-06T03:36:24.818Z,98269.42
2018-12-06T03:38:54.369Z,98271.31
2018-12-06T03:41:24.277Z,98281.50
2018-12-06T03:43:53.853Z,98260.33
2018-12-06T03:46:23.947Z,98250.94
2018-12-06T03:48:53.856Z,98252.28
2018-12-06T03:51:23.389Z,98244.74
2018-12-06T03:53:52.728Z,98258.98
2018-12-06T03:56:22.180Z,98247.97
2018-12-06T03:58:51.994Z,98239.66
2018-12-06T04:01:21.487Z,98242.88
2018-12-06T04:03:51.081Z,98241.55
2018-12-06T04:06:20.689Z,98253.06
2018-12-06T04:08:50.857Z,98255.76
2018-12-06T04:11:20.123Z,98258.17
2018-12-06T04:13:49.408Z,98254.67
2018-12-06T04:16:18.640Z,98259.78
2018-12-06T04:18:47.997Z,98256.55
2018-12-06T04:21:18.275Z,98257.61
2018-12-06T04:23:47.779Z,98254.65
2018-12-06T04:26:18.493Z,98246.07
2018-12-06T04:28:47.833Z,98246.07
2018-12-06T04:31:17.773Z,98249.02
2018-12-06T04:33:49.095Z,98249.30
2018-12-06T04:36:18.340Z,98249.28
2018-12-06T04:38:47.516Z,98251.42
2018-12-06T04:41:17.618Z,98249.54
2018-12-06T04:43:47.198Z,98250.08
2018-12-06T04:46:16.705Z,98251.42
2018-12-06T04:48:46.239Z,98252.49
2018-12-06T04:51:22.541Z,98247.94
2018-12-06T04:53:52.730Z,98246.60
2018-12-06T04:56:22.313Z,98249.54
2018-12-06T04:58:52.226Z,98241.77
2018-12-06T05:01:21.716Z,98240.69
2018-12-06T05:03:52.279Z,98237.23
2018-12-06T05:06:21.584Z,98231.84
2018-12-06T05:08:51.114Z,98224.08
2018-12-06T05:11:20.628Z,98226.23
2018-12-06T05:13:50.240Z,98222.75
2018-12-06T05:16:19.774Z,98220.88
2018-12-06T05:18:49.624Z,98218.47
2018-12-06T05:21:19.510Z,98220.89
2018-12-06T05:23:49.065Z,98221.42
2018-12-06T05:26:18.589Z,98230.29
2018-12-06T05:28:49.699Z,98226.54
2018-12-06T05:31:19.950Z,98229.20
2018-12-06T05:33:49.800Z,98226.53
2018-12-06T05:36:19.860Z,98227.88
2018-12-06T05:38:49.279Z,98229.46
2018-12-06T05:41:18.573Z,98230.28
2018-12-06T05:43:49.257Z,98227.58
2018-12-06T05:46:19.808Z,98234.55
2018-12-06T05:48:49.090Z,98238.84
2018-12-06T05:51:18.524Z,98234.52
2018-12-06T05:53:48.550Z,98239.36
2018-12-06T05:56:17.971Z,98244.73
2018-12-06T05:58:47.543Z,98237.21
2018-12-06T06:01:17.085Z,98237.47
2018-12-06T06:03:47.335Z,98238.81
2018-12-06T06:06:16.568Z,98242.29
2018-12-06T06:08:46.783Z,98242.52
2018-12-06T06:11:17.047Z,98246.00
2018-12-06T06:13:46.303Z,98250.01
2018-12-06T06:16:15.981Z,98254.84
2018-12-06T06:18:45.615Z,98246.22
2018-12-06T06:21:15.766Z,98251.34
2018-12-06T06:23:45.788Z,98255.89
2018-12-06T06:26:15.262Z,98260.46
2018-12-06T06:28:44.505Z,98267.98
2018-12-06T06:31:13.844Z,98269.88
2018-12-06T06:33:43.858Z,98274.98
2018-12-06T06:36:13.135Z,98276.33
2018-12-06T06:38:42.594Z,98274.45
2018-12-06T06:41:11.965Z,98277.92
2018-12-06T06:43:41.843Z,98277.94
2018-12-06T06:46:11.125Z,98287.88
2018-12-06T06:48:40.543Z,98287.63
2018-12-06T06:51:10.358Z,98295.95
2018-12-06T06:53:39.629Z,98302.13
2018-12-06T06:56:08.874Z,98311.80
2018-12-06T06:58:38.308Z,98311.27
2018-12-06T07:01:07.835Z,98315.82
2018-12-06T07:03:37.334Z,98309.39
2018-12-06T07:06:06.765Z,98320.13
2018-12-06T07:08:36.830Z,98326.84
2018-12-06T07:11:06.955Z,98336.25
2018-12-06T07:13:36.310Z,98348.07
2018-12-06T07:16:05.579Z,98346.77
2018-12-06T07:18:34.920Z,98347.83
2018-12-06T07:21:05.084Z,98348.94
2018-12-06T07:23:34.374Z,98365.30
2018-12-06T07:26:04.494Z,98367.98
2018-12-06T07:28:34.279Z,98372.06
2018-12-06T07:31:03.757Z,98376.13
2018-12-06T07:33:33.247Z,98376.38
2018-12-06T07:36:03.551Z,98384.18
2018-12-06T07:38:33.429Z,98383.67
2018-12-06T07:41:02.726Z,98389.61
2018-12-06T07:43:32.849Z,98387.73
2018-12-06T07:46:07.841Z,98390.18
2018-12-06T07:48:39.528Z,98395.33
2018-12-06T07:51:09.300Z,98395.34
2018-12-06T07:53:38.829Z,98398.56
2018-12-06T07:56:08.299Z,98410.67
2018-12-06T07:58:37.863Z,98412.28
2018-12-06T08:01:08.034Z,98420.88
2018-12-06T08:03:37.839Z,98415.27
2018-12-06T08:06:08.056Z,98428.44
2018-12-06T08:08:38.774Z,98430.58
2018-12-06T08:11:08.884Z,98433.82
2018-12-06T08:13:38.489Z,98436.80
2018-12-06T08:16:08.827Z,98441.91
2018-12-06T08:18:38.537Z,98445.14
2018-12-06T08:21:08.741Z,98447.30
2018-12-06T08:23:39.235Z,98446.77
2018-12-06T08:26:09.321Z,98444.34
2018-12-06T08:28:39.364Z,98444.34
2018-12-06T08:31:09.816Z,98448.94
2018-12-06T08:33:40.156Z,98451.88
2018-12-06T08:36:09.669Z,98450.01
2018-12-06T08:38:39.096Z,98455.41
2018-12-06T08:41:08.550Z,98457.84
2018-12-06T08:43:38.494Z,98464.05
2018-12-06T08:46:07.795Z,98466.19
2018-12-06T08:48:37.281Z,98469.95
2018-12-06T08:51:07.173Z,98474.81
2018-12-06T08:53:37.411Z,98470.79
2018-12-06T08:56:06.731Z,98482.88
2018-12-06T08:58:36.274Z,98480.20
2018-12-06T09:01:06.026Z,98489.63
2018-12-06T09:03:36.220Z,98482.91
2018-12-06T09:06:05.596Z,98483.70
2018-12-06T09:08:36.520Z,98468.10
2018-12-06T09:11:06.047Z,98472.41
2018-12-06T09:13:35.665Z,98481.28
2018-12-06T09:16:05.303Z,98492.81
2018-12-06T09:18:34.629Z,98492.00
2018-12-06T09:21:05.044Z,98486.33
2018-12-06T09:23:34.415Z,98488.74
2018-12-06T09:26:04.135Z,98484.13
2018-12-06T09:28:33.569Z,98495.99
2018-12-06T09:31:03.134Z,98498.97
2018-12-06T09:33:32.757Z,98510.28
2018-12-06T09:36:02.062Z,98512.16
2018-12-06T09:38:31.411Z,98513.55
2018-12-06T09:41:01.330Z,98516.45
2018-12-06T09:43:31.680Z,98516.48
2018-12-06T09:46:01.163Z,98508.12
2018-12-06T09:48:30.771Z,98513.22
2018-12-06T09:51:00.253Z,98520.77
2018-12-06T09:53:30.392Z,98519.09
2018-12-06T09:56:00.545Z,98523.41
2018-12-06T09:58:30.761Z,98524.70
2018-12-06T10:01:00.176Z,98528.45
2018-12-06T10:03:30.375Z,98523.86
2018-12-06T10:06:01.494Z,98531.38
2018-12-06T10:08:31.256Z,98533.23
2018-12-06T10:11:00.894Z,98524.55
2018-12-06T10:13:30.285Z,98513.72
2018-12-06T10:15:59.905Z,98510.14
2018-12-06T10:18:29.425Z,98511.95
2018-12-06T10:20:59.760Z,98502.08
2018-12-06T10:23:29.215Z,98500.30
2018-12-06T10:25:58.865Z,98496.20
2018-12-06T10:28:28.200Z,98491.86
2018-12-06T10:30:57.631Z,98484.48
2018-12-06T10:33:27.687Z,98475.56
2018-12-06T10:35:56.990Z,98475.72
2018-12-06T10:38:26.231Z,98485.98
2018-12-06T10:40:55.477Z,98485.31
2018-12-06T10:43:24.917Z,98487.78
2018-12-06T10:46:58.354Z,98485.80
2018-12-06T10:49:28.254Z,98483.21
2018-12-06T10:51:57.666Z,98484.62
2018-12-06T10:54:28.040Z,98492.49
2018-12-06T10:56:57.863Z,98489.25
2018-12-06T10:59:27.320Z,98478.66
2018-12-06T11:02:02.806Z,98480.83
2018-12-06T11:04:36.151Z,98487.03
2018-12-06T11:07:07.827Z,98468.09
2018-12-06T11:09:37.620Z,98473.68
2018-12-06T11:12:07.141Z,98471.33
2018-12-06T11:14:37.492Z,98477.88
2018-12-06T11:17:07.455Z,98476.87
2018-12-06T11:19:37.693Z,98489.17
2018-12-06T11:22:07.995Z,98490.97
2018-12-06T11:24:37.587Z,98494.09
2018-12-06T11:27:07.235Z,98491.44
2018-12-06T11:29:36.790Z,98491.61
2018-12-06T11:32:06.782Z,98498.72
2018-12-06T11:34:36.997Z,98492.20
2018-12-06T11:37:06.997Z,98494.03
2018-12-06T11:39:36.613Z,98495.16
2018-12-06T11:42:06.237Z,98499.83
2018-12-06T11:44:35.688Z,98507.16
2018-12-06T11:47:04.907Z,98516.73
2018-12-06T11:49:34.298Z,98512.42
2018-12-06T11:52:04.202Z,98510.09
2018-12-06T11:54:33.665Z,98512.19
2018-12-06T11:57:03.114Z,98507.73
2018-12-06T11:59:32.697Z,98507.42
2018-12-06T12:02:02.173Z,98513.39
2018-12-06T12:04:32.362Z,98512.92
2018-12-06T12:07:02.575Z,98509.67
2018-12-06T12:09:32.121Z,98502.62
2018-12-06T12:12:01.571Z,98507.94
2018-12-06T12:14:33.341Z,98504.13
2018-12-06T12:17:03.275Z,98502.23
2018-12-06T12:19:32.587Z,98502.84
2018-12-06T12:22:02.771Z,98505.80
2018-12-06T12:24:32.570Z,98506.17
2018-12-06T12:27:02.353Z,98500.70
2018-12-06T12:29:31.807Z,98499.30
2018-12-06T12:32:01.729Z,98493.70
2018-12-06T12:34:31.154Z,98493.97
2018-12-06T12:37:00.682Z,98490.19
2018-12-06T12:39:30.291Z,98487.88
2018-12-06T12:42:00.467Z,98491.67
2018-12-06T12:44:29.786Z,98486.92
2018-12-06T12:46:59.158Z,98488.87
2018-12-06T12:49:29.321Z,98478.88
2018-12-06T12:51:59.323Z,98487.23
2018-12-06T12:54:29.711Z,98501.69
2018-12-06T12:56:59.641Z,98489.95
2018-12-06T12:59:29.833Z,98490.22
2018-12-06T13:02:00.058Z,98480.52
2018-12-06T13:04:29.402Z,98477.86
2018-12-06T13:07:10.147Z,98482.14
2018-12-06T13:09:40.346Z,98490.45
2018-12-06T13:12:10.696Z,98494.78
2018-12-06T13:14:40.807Z,98502.48
2018-12-06T13:17:10.306Z,98498.55
2018-12-06T13:19:40.331Z,98498.22
2018-12-06T13:22:09.919Z,98486.25
2018-12-06T13:24:39.507Z,98478.50
2018-12-06T13:27:08.902Z,98457.91
2018-12-06T13:29:38.968Z,98458.54
2018-12-06T13:32:08.423Z,98453.85
2018-12-06T13:34:38.542Z,98461.02
2018-12-06T13:37:08.015Z,98468.58
2018-12-06T13:39:37.518Z,98470.27
2018-12-06T13:42:07.303Z,98472.88
2018-12-06T13:44:37.675Z,98473.38
2018-12-06T13:47:07.658Z,98470.20
2018-12-06T13:49:37.903Z,98471.88
2018-12-06T13:52:07.974Z,98472.80
2018-12-06T13:54:37.821Z,98477.28
2018-12-06T13:57:07.627Z,98477.23
2018-12-06T13:59:37.728Z,98490.17
2018-12-06T14:02:07.823Z,98484.20
2018-12-06T14:04:37.813Z,98474.46
2018-12-06T14:07:08.362Z,98479.41
2018-12-06T14:09:38.528Z,98472.30
2018-12-06T14:12:08.537Z,98471.75
2018-12-06T14:14:39.131Z,98481.07
2018-12-06T14:17:08.883Z,98482.39
2018-12-06T14:19:39.217Z,98477.42
2018-12-06T14:22:09.030Z,98487.12
2018-12-06T14:24:40.818Z,98481.45
2018-12-06T14:27:11.025Z,98495.19
2018-12-06T14:29:41.091Z,98513.03
2018-12-06T14:32:11.401Z,98506.61
2018-12-06T14:34:41.493Z,98513.47
2018-12-06T14:37:11.672Z,98509.29
2018-12-06T14:39:41.712Z,98511.66
2018-12-06T14:42:12.399Z,98507.38
2018-12-06T14:44:42.473Z,98512.38
2018-12-06T14:47:12.748Z,98518.81
2018-12-06T14:49:42.612Z,98511.73
2018-12-06T14:52:13.063Z,98507.93
2018-12-06T14:54:43.193Z,98509.06
2018-12-06T14:57:13.482Z,98503.67
2018-12-06T14:59:43.561Z,98510.52
2018-12-06T15:02:14.109Z,98512.77
2018-12-06T15:05:19.952Z,98525.34
2018-12-06T15:07:50.209Z,98539.74
2018-12-06T15:10:20.347Z,98534.12
2018-12-06T15:12:51.469Z,98534.73
2018-12-06T15:15:21.669Z,98536.36
2018-12-06T15:17:53.052Z,98535.19
2018-12-06T15:20:23.032Z,98539.14
2018-12-06T15:22:52.845Z,98532.54
2018-12-06T15:25:22.745Z,98542.77
2018-12-06T15:27:53.732Z,98544.16
2018-12-06T15:30:23.912Z,98543.68
2018-12-06T15:32:54.113Z,98542.70
2018-12-06T15:35:23.765Z,98548.11
2018-12-06T15:37:54.585Z,98540.66
2018-12-06T15:40:24.927Z,98542.01
2018-12-06T15:42:54.901Z,98541.83
2018-12-06T15:45:26.169Z,98535.33
2018-12-06T15:47:57.404Z,98541.89
2018-12-06T15:50:28.370Z,98550.44
2018-12-06T15:52:58.723Z,98555.31
2018-12-06T15:55:28.752Z,98553.44
2018-12-06T15:57:58.447Z,98554.28
2018-12-06T16:00:27.992Z,98555.39
2018-12-06T16:02:57.420Z,98560.63
2018-12-06T16:05:27.038Z,98562.59
2018-12-06T16:07:56.659Z,98556.94
2018-12-06T16:10:26.109Z,98560.00
2018-12-06T16:12:55.935Z,98557.05
2018-12-06T16:15:25.348Z,98566.25
2018-12-06T16:17:54.882Z,98561.44
2018-12-06T16:20:24.706Z,98560.59
2018-12-06T16:22:54.715Z,98566.77
2018-12-06T16:25:24.286Z,98562.73
2018-12-06T16:27:54.414Z,98573.63
2018-12-06T16:30:23.755Z,98565.56
2018-12-06T16:32:53.543Z,98557.50
2018-12-06T16:35:22.960Z,98569.33
2018-12-06T16:37:52.558Z,98570.67
2018-12-06T16:40:22.323Z,98574.71
2018-12-06T16:42:52.466Z,98568.25
2018-12-06T16:45:23.048Z,98565.76
2018-12-06T16:47:52.857Z,98571.14
2018-12-06T16:50:22.445Z,98569.55
2018-12-06T16:52:52.408Z,98560.92
2018-12-06T16:55:22.820Z,98551.17
2018-12-06T16:57:52.779Z,98559.09
2018-12-06T17:00:22.669Z,98560.25
2018-12-06T17:02:52.223Z,98569.30
2018-12-06T17:05:21.813Z,98572.16
2018-12-06T17:07:52.573Z,98566.31
2018-12-06T17:10:22.330Z,98573.23
2018-12-06T17:12:51.973Z,98573.59
2018-12-06T17:15:22.412Z,98574.25
2018-12-06T17:17:52.018Z,98581.35
2018-12-06T17:20:21.688Z,98583.86
2018-12-06T17:22:51.984Z,98586.61
2018-12-06T17:25:22.159Z,98585.83
2018-12-06T17:28:06.292Z,98594.50
2018-12-06T17:30:36.137Z,98596.41
2018-12-06T17:33:05.649Z,98594.52
2018-12-06T17:35:35.833Z,98607.20
2018-12-06T17:38:05.665Z,98605.85
2018-12-06T17:40:35.463Z,98606.66
2018-12-06T17:43:06.183Z,98606.91
2018-12-06T17:45:36.814Z,98612.05
2018-12-06T17:48:06.638Z,98610.94
2018-12-06T17:50:37.044Z,98604.73
2018-12-06T17:53:07.120Z,98615.27
2018-12-06T17:55:44.263Z,98625.78
2018-12-06T17:58:14.184Z,98622.55
2018-12-06T18:00:44.827Z,98626.08
2018-12-06T18:03:14.758Z,98627.95
2018-12-06T18:05:44.989Z,98618.49
2018-12-06T18:08:14.959Z,98611.16
2018-12-06T18:10:44.989Z,98609.80
2018-12-06T18:13:14.619Z,98606.28
2018-12-06T18:15:44.774Z,98604.69
2018-12-06T18:18:14.784Z,98609.55
2018-12-06T18:20:44.603Z,98608.69
2018-12-06T18:23:14.127Z,98611.90
2018-12-06T18:25:44.537Z,98604.84
2018-12-06T18:28:14.293Z,98606.70
2018-12-06T18:30:43.913Z,98609.38
2018-12-06T18:33:13.641Z,98612.38
2018-12-06T18:35:43.201Z,98609.69
2018-12-06T18:38:14.412Z,98613.74
2018-12-06T18:40:44.589Z,98616.99
2018-12-06T18:43:14.225Z,98623.20
2018-12-06T18:45:43.993Z,98620.51
2018-12-06T18:48:13.598Z,98616.73
2018-12-06T18:50:43.395Z,98620.51
2018-12-06T18:53:12.979Z,98628.37
2018-12-06T18:55:42.504Z,98619.75
2018-12-06T18:58:12.138Z,98613.81
2018-12-06T19:00:42.834Z,98608.14
2018-12-06T19:03:12.538Z,98608.14
2018-12-06T19:05:43.105Z,98609.48
2018-12-06T19:08:13.512Z,98611.12
2018-12-06T19:10:43.544Z,98610.84
2018-12-06T19:13:13.285Z,98607.34
2018-12-06T19:15:43.489Z,98601.16
2018-12-06T19:18:14.148Z,98597.87
2018-12-06T19:20:44.044Z,98603.27
2018-12-06T19:23:14.160Z,98603.79
2018-12-06T19:25:44.125Z,98599.80
2018-12-06T19:28:14.140Z,98598.17
2018-12-06T19:30:44.185Z,98606.30
2018-12-06T19:33:14.250Z,98604.46
2018-12-06T19:35:44.096Z,98600.44
2018-12-06T19:38:14.404Z,98600.16
2018-12-06T19:40:44.493Z,98601.27
2018-12-06T19:43:13.957Z,98595.56
2018-12-06T19:45:43.794Z,98594.22
2018-12-06T19:48:13.398Z,98590.45
2018-12-06T19:50:43.229Z,98589.92
2018-12-06T19:53:13.464Z,98589.34
2018-12-06T19:55:44.371Z,98584.48
2018-12-06T19:58:14.079Z,98592.34
2018-12-06T20:00:44.606Z,98585.31
2018-12-06T20:03:14.664Z,98590.70
2018-12-06T20:05:45.018Z,98579.65
2018-12-06T20:08:14.966Z,98577.73
2018-12-06T20:10:44.822Z,98576.91
2018-12-06T20:13:14.313Z,98571.78
2018-12-06T20:15:44.242Z,98570.72
2018-12-06T20:18:13.907Z,98567.71
2018-12-06T20:20:43.821Z,98573.88
2018-12-06T20:23:15.000Z,98571.16
2018-12-06T20:25:45.152Z,98566.27
2018-12-06T20:28:15.479Z,98569.19
2018-12-06T20:30:45.963Z,98569.45
2018-12-06T20:33:15.793Z,98576.45
2018-12-06T20:35:45.873Z,98586.42
2018-12-06T20:38:15.289Z,98579.12
2018-12-06T20:40:45.236Z,98563.45
2018-12-06T20:43:15.575Z,98570.73
2018-12-06T20:45:45.845Z,98562.08
2018-12-06T20:48:15.931Z,98571.75
2018-12-06T20:50:49.367Z,98572.80
2018-12-06T20:53:17.377Z,98567.92
2018-12-06T20:55:47.527Z,98569.83
2018-12-06T20:58:17.164Z,98565.48
2018-12-06T21:00:47.039Z,98571.90
2018-12-06T21:03:19.250Z,98568.33
2018-12-06T21:07:13.713Z,98564.55
2018-12-06T21:09:43.355Z,98564.52
2018-12-06T21:12:13.619Z,98563.70
2018-12-06T21:14:43.719Z,98566.11
2018-12-06T21:17:13.495Z,98559.85
2018-12-06T21:19:43.226Z,98554.16
2018-12-06T21:22:13.466Z,98553.55
2018-12-06T21:24:43.604Z,98547.03
2018-12-06T21:27:13.826Z,98546.43
2018-12-06T21:29:43.526Z,98546.67
2018-12-06T21:32:13.084Z,98540.95
2018-12-06T21:34:43.331Z,98549.06
2018-12-06T21:37:12.879Z,98548.77
2018-12-06T21:39:42.910Z,98545.17
2018-12-06T21:42:12.837Z,98540.86
2018-12-06T21:44:43.466Z,98541.02
2018-12-06T21:47:17.336Z,98539.42
2018-12-06T21:49:48.350Z,98544.83
2018-12-06T21:52:18.701Z,98541.86
2018-12-06T21:54:48.798Z,98539.13
2018-12-06T21:57:18.097Z,98543.44
2018-12-06T21:59:47.857Z,98539.38
2018-12-06T22:02:27.251Z,98545.25
2018-12-06T22:04:57.131Z,98546.60
2018-12-06T22:07:26.654Z,98545.98
2018-12-06T22:09:55.965Z,98544.95
2018-12-06T22:12:25.634Z,98540.63
2018-12-06T22:14:55.420Z,98544.36
2018-12-06T22:17:25.307Z,98544.09
2018-12-06T22:19:55.721Z,98541.38
2018-12-06T22:22:25.882Z,98538.70
2018-12-06T22:24:56.071Z,98537.67
2018-12-06T22:27:26.319Z,98535.80
2018-12-06T22:29:55.705Z,98532.80
2018-12-06T22:32:25.637Z,98532.05
2018-12-06T22:34:55.847Z,98531.53
2018-12-06T22:37:25.342Z,98526.96
2018-12-06T22:39:54.907Z,98527.80
2018-12-06T22:42:24.406Z,98519.69
2018-12-06T22:45:10.841Z,98528.04
2018-12-06T22:49:04.457Z,98522.06
2018-12-06T22:51:34.228Z,98525.28
2018-12-06T22:54:04.758Z,98526.36
2018-12-06T22:56:34.261Z,98520.14
2018-12-06T22:59:04.721Z,98520.11
2018-12-06T23:01:40.385Z,98520.44
2018-12-06T23:04:10.397Z,98517.52
2018-12-06T23:06:39.840Z,98520.25
2018-12-06T23:09:10.683Z,98518.38
2018-12-06T23:11:40.207Z,98525.95
2018-12-06T23:14:10.228Z,98517.27
2018-12-06T23:16:39.758Z,98514.54
2018-12-06T23:19:10.751Z,98504.83
2018-12-06T23:21:40.899Z,98507.80
2018-12-06T23:24:10.497Z,98509.97
2018-12-06T23:26:40.340Z,98505.16
2018-12-06T23:29:10.032Z,98501.04
2018-12-06T23:31:39.599Z,98496.98
2018-12-06T23:34:09.886Z,98491.33
2018-12-06T23:36:40.016Z,98487.27
2018-12-06T23:39:09.367Z,98488.11
2018-12-06T23:41:38.615Z,98485.41
2018-12-06T23:44:08.667Z,98483.78
2018-12-06T23:46:37.950Z,98478.38
2018-12-06T23:49:07.226Z,98481.62
2018-12-06T23:51:38.667Z,98477.27
2018-12-06T23:54:09.411Z,98480.19
2018-12-06T23:56:38.781Z,98478.20
2018-12-06T23:59:08.088Z,98473.37
